createdAt,value
2022-12-16T00:01:25.628Z,49.10
2022-12-16T00:03:55.777Z,46.00
2022-12-16T00:06:25.670Z,45.77
2022-12-16T00:08:52.793Z,45.53
2022-12-16T00:11:20.868Z,47.77
2022-12-16T00:13:48.061Z,52.63
2022-12-16T00:16:17.303Z,59.23
2022-12-16T00:18:45.335Z,62.93
2022-12-16T00:21:12.741Z,48.10
2022-12-16T00:23:41.813Z,47.43
2022-12-16T00:26:09.253Z,43.20
2022-12-16T00:28:37.221Z,46.20
2022-12-16T00:31:04.985Z,47.43
2022-12-16T00:33:33.619Z,50.93
2022-12-16T00:36:00.654Z,47.40
2022-12-16T00:38:27.755Z,47.03
2022-12-16T00:40:54.904Z,45.57
2022-12-16T00:43:22.434Z,48.53
2022-12-16T00:45:49.452Z,47.07
2022-12-16T00:48:23.242Z,47.37
2022-12-16T00:50:51.927Z,51.60
2022-12-16T00:53:20.465Z,50.20
2022-12-16T00:55:47.313Z,50.87
2022-12-16T00:58:14.589Z,50.50
2022-12-16T01:00:41.549Z,50.57
2022-12-16T01:03:08.857Z,51.73
2022-12-16T01:05:38.232Z,53.57
2022-12-16T01:08:05.999Z,53.17
2022-12-16T01:10:32.891Z,48.33
2022-12-16T01:13:00.044Z,52.17
2022-12-16T01:15:27.130Z,48.30
2022-12-16T01:17:54.311Z,50.07
2022-12-16T01:20:22.273Z,48.10
2022-12-16T01:22:49.634Z,46.67
2022-12-16T01:25:17.743Z,45.13
2022-12-16T01:27:44.769Z,46.50
2022-12-16T01:30:11.891Z,47.33
2022-12-16T01:32:39.122Z,50.57
2022-12-16T01:35:18.032Z,51.23
2022-12-16T01:37:53.220Z,53.00
2022-12-16T01:40:24.700Z,47.87
2022-12-16T01:42:51.748Z,43.53
2022-12-16T01:45:24.959Z,46.23
2022-12-16T01:47:54.934Z,46.57
2022-12-16T01:50:22.447Z,45.00
2022-12-16T01:52:56.243Z,44.17
2022-12-16T01:55:28.519Z,48.03
2022-12-16T01:58:11.376Z,49.17
2022-12-16T02:00:40.038Z,45.73
2022-12-16T02:03:07.988Z,45.40
2022-12-16T02:05:40.243Z,45.97
2022-12-16T02:08:12.690Z,46.97
2022-12-16T02:10:42.735Z,44.73
2022-12-16T02:13:26.466Z,50.30
2022-12-16T02:16:17.175Z,50.93
2022-12-16T02:19:02.458Z,51.37
2022-12-16T02:21:39.058Z,53.13
2022-12-16T02:24:15.056Z,51.87
2022-12-16T02:26:58.103Z,53.43
2022-12-16T02:29:56.372Z,53.50
2022-12-16T02:32:49.706Z,48.77
2022-12-16T02:35:19.720Z,49.20
2022-12-16T02:37:58.341Z,45.77
2022-12-16T02:40:49.037Z,48.27
2022-12-16T02:43:41.041Z,49.23
2022-12-16T02:46:08.854Z,50.70
2022-12-16T02:48:35.675Z,46.47
2022-12-16T02:51:03.146Z,49.90
2022-12-16T02:53:32.936Z,48.17
2022-12-16T02:56:38.185Z,48.13
2022-12-16T02:59:24.457Z,47.17
2022-12-16T03:02:12.433Z,47.90
2022-12-16T03:04:51.003Z,47.37
2022-12-16T03:07:21.528Z,47.80
2022-12-16T03:09:50.298Z,46.93
2022-12-16T03:12:21.961Z,46.77
2022-12-16T03:14:53.317Z,46.53
2022-12-16T03:17:23.516Z,45.23
2022-12-16T03:20:01.650Z,45.67
2022-12-16T03:22:33.012Z,48.37
2022-12-16T03:24:59.732Z,45.87
2022-12-16T03:27:40.379Z,46.30
2022-12-16T03:30:13.231Z,44.70
2022-12-16T03:32:45.655Z,47.00
2022-12-16T03:35:19.586Z,44.47
2022-12-16T03:37:49.944Z,44.47
2022-12-16T03:40:17.942Z,44.67
2022-12-16T03:42:46.984Z,45.47
2022-12-16T03:45:22.742Z,44.80
2022-12-16T03:47:53.552Z,42.50
2022-12-16T03:50:26.825Z,44.07
2022-12-16T03:52:53.856Z,43.77
2022-12-16T03:55:20.702Z,46.50
2022-12-16T03:57:47.737Z,43.70
2022-12-16T04:00:15.232Z,42.47
2022-12-16T04:02:42.712Z,43.33
2022-12-16T04:05:10.488Z,43.53
2022-12-16T04:07:37.533Z,43.77
2022-12-16T04:10:05.951Z,40.47
2022-12-16T04:12:51.768Z,42.40
2022-12-16T04:15:18.662Z,38.83
2022-12-16T04:18:04.712Z,40.97
2022-12-16T04:20:58.131Z,39.13
2022-12-16T04:23:47.132Z,38.00
2022-12-16T04:26:14.173Z,39.57
2022-12-16T04:28:41.179Z,43.43
2022-12-16T04:31:08.421Z,41.73
2022-12-16T04:33:54.287Z,41.37
2022-12-16T04:36:39.684Z,40.20
2022-12-16T04:39:25.537Z,38.50
2022-12-16T04:42:14.280Z,39.07
2022-12-16T04:44:59.867Z,41.57
2022-12-16T04:47:45.606Z,41.80
2022-12-16T04:50:31.490Z,42.37
2022-12-16T04:53:16.871Z,44.47
2022-12-16T04:56:16.288Z,48.37
2022-12-16T04:59:01.826Z,43.03
2022-12-16T05:01:47.640Z,43.33
2022-12-16T05:04:32.964Z,45.23
2022-12-16T05:07:18.475Z,43.37
2022-12-16T05:10:03.630Z,45.67
2022-12-16T05:12:49.497Z,44.90
2022-12-16T05:15:36.651Z,45.57
2022-12-16T05:18:29.610Z,43.87
2022-12-16T05:21:17.177Z,45.70
2022-12-16T05:24:03.399Z,47.30
2022-12-16T05:26:48.951Z,48.73
2022-12-16T05:29:34.672Z,51.20
2022-12-16T05:32:19.972Z,47.00
2022-12-16T05:35:05.571Z,50.80
2022-12-16T05:37:50.775Z,48.77
2022-12-16T05:40:36.442Z,50.53
2022-12-16T05:43:21.743Z,49.70
2022-12-16T05:46:07.541Z,47.90
2022-12-16T05:48:52.889Z,48.03
2022-12-16T05:51:38.486Z,49.33
2022-12-16T05:54:24.290Z,48.40
2022-12-16T05:57:10.010Z,48.47
2022-12-16T05:59:55.454Z,48.87
2022-12-16T06:02:41.084Z,49.27
2022-12-16T06:05:26.571Z,47.63
2022-12-16T06:08:12.961Z,49.13
2022-12-16T06:10:58.302Z,48.03
2022-12-16T06:13:43.946Z,49.27
2022-12-16T06:16:29.424Z,49.00
2022-12-16T06:19:15.266Z,47.20
2022-12-16T06:22:00.726Z,48.37
2022-12-16T06:24:46.016Z,45.63
2022-12-16T06:27:32.233Z,46.17
2022-12-16T06:30:18.021Z,46.17
2022-12-16T06:33:03.529Z,47.77
2022-12-16T06:35:49.234Z,49.73
2022-12-16T06:38:34.325Z,48.30
2022-12-16T06:41:19.816Z,54.10
2022-12-16T06:44:05.206Z,59.30
2022-12-16T06:46:55.373Z,61.47
2022-12-16T06:49:40.978Z,58.27
2022-12-16T06:52:26.824Z,49.77
2022-12-16T06:55:12.232Z,48.70
2022-12-16T06:57:59.228Z,45.90
2022-12-16T07:00:45.074Z,49.83
2022-12-16T07:03:35.583Z,52.17
2022-12-16T07:06:21.515Z,47.00
2022-12-16T07:09:07.096Z,49.10
2022-12-16T07:11:52.153Z,50.13
2022-12-16T07:14:37.894Z,50.50
2022-12-16T07:17:24.008Z,50.10
2022-12-16T07:20:15.836Z,48.30
2022-12-16T07:23:10.727Z,50.17
2022-12-16T07:26:03.313Z,48.87
2022-12-16T07:28:48.723Z,53.73
2022-12-16T07:31:34.575Z,54.63
2022-12-16T07:34:20.113Z,51.13
2022-12-16T07:37:06.053Z,55.20
2022-12-16T07:39:55.089Z,57.33
2022-12-16T07:42:41.798Z,58.83
2022-12-16T07:45:28.480Z,56.80
2022-12-16T07:48:15.005Z,62.13
2022-12-16T07:51:00.637Z,61.77
2022-12-16T07:53:46.817Z,70.03
2022-12-16T07:56:32.456Z,72.87
2022-12-16T07:59:18.279Z,70.97
2022-12-16T08:02:03.963Z,65.73
2022-12-16T08:04:49.676Z,82.10
2022-12-16T08:07:35.104Z,80.13
2022-12-16T08:10:21.137Z,79.17
2022-12-16T08:13:06.614Z,82.23
2022-12-16T08:15:52.546Z,81.60
2022-12-16T08:18:38.309Z,82.20
2022-12-16T08:21:24.246Z,83.67
2022-12-16T08:24:09.970Z,78.33
2022-12-16T08:26:55.661Z,70.40
2022-12-16T08:29:45.168Z,66.20
2022-12-16T08:32:33.129Z,64.03
2022-12-16T08:35:18.945Z,70.00
2022-12-16T08:38:12.045Z,69.93
2022-12-16T08:41:01.109Z,70.13
2022-12-16T08:43:52.321Z,75.53
2022-12-16T08:46:38.322Z,74.43
2022-12-16T08:49:24.641Z,66.00
2022-12-16T08:52:10.480Z,68.23
2022-12-16T08:54:56.127Z,72.80
2022-12-16T08:57:41.833Z,76.17
2022-12-16T09:00:27.633Z,80.70
2022-12-16T09:03:17.634Z,85.63
2022-12-16T09:06:04.185Z,91.17
2022-12-16T09:08:49.534Z,96.20
2022-12-16T09:11:34.960Z,101.20
2022-12-16T09:14:20.319Z,92.90
2022-12-16T09:17:06.864Z,94.70
2022-12-16T09:19:52.118Z,97.20
2022-12-16T09:22:39.529Z,100.93
2022-12-16T09:25:25.497Z,102.83
2022-12-16T09:28:10.970Z,95.00
2022-12-16T09:30:56.432Z,87.70
2022-12-16T09:33:42.041Z,80.50
2022-12-16T09:36:27.489Z,77.10
2022-12-16T09:39:13.043Z,76.80
2022-12-16T09:42:04.451Z,68.57
2022-12-16T09:45:02.998Z,71.70
2022-12-16T09:48:08.788Z,73.87
2022-12-16T09:50:59.293Z,74.70
2022-12-16T09:53:46.743Z,70.37
2022-12-16T09:56:41.199Z,67.30
2022-12-16T09:59:33.821Z,65.37
2022-12-16T10:02:20.393Z,65.70
2022-12-16T10:05:10.614Z,66.17
2022-12-16T10:08:03.463Z,64.63
2022-12-16T10:11:25.255Z,64.27
2022-12-16T10:14:23.715Z,64.17
2022-12-16T10:17:26.065Z,62.23
2022-12-16T10:20:26.029Z,66.00
2022-12-16T10:23:27.633Z,65.30
2022-12-16T10:26:26.314Z,65.00
2022-12-16T10:29:23.658Z,69.53
2022-12-16T10:32:09.308Z,72.87
2022-12-16T10:34:57.581Z,71.33
2022-12-16T10:37:53.204Z,74.13
2022-12-16T10:40:44.087Z,73.40
2022-12-16T10:43:52.979Z,73.40
2022-12-16T10:46:47.352Z,69.43
2022-12-16T10:49:34.807Z,68.70
2022-12-16T10:52:20.573Z,68.90
2022-12-16T10:55:21.677Z,66.33
2022-12-16T10:58:25.590Z,67.83
2022-12-16T11:01:11.554Z,66.00
2022-12-16T11:03:58.791Z,65.57
2022-12-16T11:06:53.734Z,64.07
2022-12-16T11:09:43.089Z,63.53
2022-12-16T11:12:45.904Z,62.97
2022-12-16T11:15:44.022Z,64.37
2022-12-16T11:18:38.876Z,64.07
2022-12-16T11:21:30.318Z,60.53
2022-12-16T11:24:39.266Z,59.47
2022-12-16T11:27:33.356Z,59.93
2022-12-16T11:30:44.256Z,67.83
2022-12-16T11:33:41.782Z,65.27
2022-12-16T11:36:34.731Z,64.43
2022-12-16T11:39:20.595Z,65.93
2022-12-16T11:42:09.227Z,64.40
2022-12-16T11:45:01.289Z,65.70
2022-12-16T11:48:12.266Z,66.33
2022-12-16T11:51:06.975Z,66.17
2022-12-16T11:53:58.690Z,64.77
2022-12-16T11:56:53.868Z,64.23
2022-12-16T11:59:55.338Z,80.60
2022-12-16T12:03:03.119Z,73.57
2022-12-16T12:05:57.989Z,68.70
2022-12-16T12:09:06.930Z,60.40
2022-12-16T12:12:03.768Z,63.73
2022-12-16T12:15:24.234Z,63.20
2022-12-16T12:18:23.934Z,60.97
2022-12-16T12:21:38.346Z,60.03
2022-12-16T12:24:40.768Z,63.90
2022-12-16T12:27:47.590Z,64.17
2022-12-16T12:30:36.705Z,59.90
2022-12-16T12:33:37.376Z,61.10
2022-12-16T12:36:37.989Z,68.53
2022-12-16T12:39:32.710Z,65.57
2022-12-16T12:42:49.225Z,64.67
2022-12-16T12:45:49.588Z,64.53
2022-12-16T12:48:45.171Z,66.90
2022-12-16T12:51:56.447Z,70.90
2022-12-16T12:54:54.269Z,71.80
2022-12-16T12:57:44.462Z,65.90
2022-12-16T13:00:39.572Z,69.03
2022-12-16T13:03:52.444Z,65.83
2022-12-16T13:06:39.810Z,68.03
2022-12-16T13:09:49.150Z,68.83
2022-12-16T13:12:34.706Z,63.13
2022-12-16T13:15:26.365Z,68.10
2022-12-16T13:18:18.254Z,64.47
2022-12-16T13:21:17.043Z,64.00
2022-12-16T13:24:03.958Z,62.40
2022-12-16T13:26:52.979Z,62.07
2022-12-16T13:29:57.105Z,61.73
2022-12-16T13:32:44.163Z,62.83
2022-12-16T13:35:29.867Z,66.00
2022-12-16T13:38:17.590Z,60.90
2022-12-16T13:41:17.169Z,66.00
2022-12-16T13:44:17.113Z,60.50
2022-12-16T13:47:11.266Z,58.90
2022-12-16T13:50:08.695Z,59.73
2022-12-16T13:53:13.923Z,59.10
2022-12-16T13:56:11.315Z,58.50
2022-12-16T13:59:01.790Z,59.73
2022-12-16T14:02:13.850Z,59.10
2022-12-16T14:05:05.243Z,59.07
2022-12-16T14:07:54.231Z,59.97
2022-12-16T14:10:56.584Z,58.40
2022-12-16T14:14:11.095Z,60.47
2022-12-16T14:17:14.181Z,60.17
2022-12-16T14:20:15.883Z,59.33
2022-12-16T14:23:46.816Z,62.57
2022-12-16T14:26:22.324Z,61.30
2022-12-16T14:29:08.403Z,65.03
2022-12-16T14:31:54.915Z,65.00
2022-12-16T14:34:48.859Z,64.30
2022-12-16T14:37:35.415Z,64.03
2022-12-16T14:40:23.022Z,60.53
2022-12-16T14:43:12.924Z,60.03
2022-12-16T14:46:07.943Z,64.47
2022-12-16T14:48:56.144Z,62.00
2022-12-16T14:51:45.097Z,61.77
2022-12-16T14:54:33.532Z,63.63
2022-12-16T14:57:19.210Z,62.70
2022-12-16T15:00:05.174Z,63.97
2022-12-16T15:03:02.986Z,58.80
2022-12-16T15:05:53.402Z,62.23
2022-12-16T15:08:40.112Z,60.43
2022-12-16T15:11:31.140Z,61.67
2022-12-16T15:14:19.155Z,64.50
2022-12-16T15:17:06.829Z,62.37
2022-12-16T15:20:11.965Z,60.37
2022-12-16T15:23:03.849Z,58.23
2022-12-16T15:25:50.062Z,58.10
2022-12-16T15:29:02.796Z,60.27
2022-12-16T15:31:56.826Z,57.50
2022-12-16T15:35:06.490Z,59.97
2022-12-16T15:38:03.810Z,57.10
2022-12-16T15:40:52.311Z,56.17
2022-12-16T15:43:56.120Z,59.63
2022-12-16T15:46:46.643Z,56.07
2022-12-16T15:49:46.683Z,59.47
2022-12-16T15:53:00.206Z,57.77
2022-12-16T15:55:50.466Z,60.33
2022-12-16T15:58:46.268Z,57.90
2022-12-16T16:01:38.327Z,59.73
2022-12-16T16:04:38.967Z,58.83
2022-12-16T16:07:34.755Z,61.00
2022-12-16T16:10:42.006Z,58.47
2022-12-16T16:13:29.240Z,58.30
2022-12-16T16:16:15.077Z,59.30
2022-12-16T16:19:02.001Z,57.13
2022-12-16T16:21:48.363Z,55.73
2022-12-16T16:24:34.205Z,58.77
2022-12-16T16:27:21.045Z,56.70
2022-12-16T16:30:06.598Z,58.33
2022-12-16T16:32:51.922Z,56.87
2022-12-16T16:35:37.428Z,58.97
2022-12-16T16:38:22.847Z,59.30
2022-12-16T16:41:08.349Z,60.80
2022-12-16T16:43:53.742Z,60.20
2022-12-16T16:46:39.402Z,61.53
2022-12-16T16:49:28.748Z,62.53
2022-12-16T16:52:14.522Z,61.53
2022-12-16T16:54:59.962Z,64.83
2022-12-16T16:57:50.858Z,64.47
2022-12-16T17:00:36.720Z,62.93
2022-12-16T17:03:22.863Z,62.73
2022-12-16T17:06:08.298Z,59.07
2022-12-16T17:08:53.926Z,61.70
2022-12-16T17:11:40.879Z,62.57
2022-12-16T17:14:37.209Z,57.00
2022-12-16T17:17:23.591Z,57.90
2022-12-16T17:20:09.481Z,58.10
2022-12-16T17:22:54.979Z,56.73
2022-12-16T17:25:40.582Z,55.23
2022-12-16T17:28:27.745Z,59.47
2022-12-16T17:31:13.350Z,56.27
2022-12-16T17:33:58.493Z,55.30
2022-12-16T17:36:44.020Z,56.33
2022-12-16T17:39:30.364Z,60.13
2022-12-16T17:42:16.203Z,59.00
2022-12-16T17:45:01.681Z,59.07
2022-12-16T17:47:47.251Z,57.60
2022-12-16T17:50:32.602Z,55.60
2022-12-16T17:53:18.467Z,56.93
2022-12-16T17:56:03.695Z,55.57
2022-12-16T17:58:55.075Z,54.23
2022-12-16T18:01:41.220Z,57.27
2022-12-16T18:04:26.957Z,56.47
2022-12-16T18:07:12.932Z,53.87
2022-12-16T18:09:58.743Z,55.10
2022-12-16T18:12:45.297Z,56.20
2022-12-16T18:15:31.313Z,56.57
2022-12-16T18:18:16.701Z,54.70
2022-12-16T18:21:02.512Z,50.63
2022-12-16T18:23:48.603Z,52.70
2022-12-16T18:26:33.995Z,53.30
2022-12-16T18:29:19.443Z,53.20
2022-12-16T18:32:07.065Z,50.90
2022-12-16T18:34:52.521Z,55.43
2022-12-16T18:37:38.342Z,55.03
2022-12-16T18:40:24.280Z,54.00
2022-12-16T18:43:10.078Z,52.30
2022-12-16T18:45:55.329Z,51.23
2022-12-16T18:48:41.174Z,50.27
2022-12-16T18:51:26.975Z,50.37
2022-12-16T18:54:12.537Z,49.93
2022-12-16T18:56:58.373Z,52.50
2022-12-16T18:59:43.881Z,48.90
2022-12-16T19:02:29.368Z,53.00
2022-12-16T19:05:15.426Z,50.03
2022-12-16T19:08:00.818Z,48.60
2022-12-16T19:10:46.586Z,51.10
2022-12-16T19:13:34.648Z,50.80
2022-12-16T19:16:20.436Z,52.90
2022-12-16T19:19:06.360Z,50.17
2022-12-16T19:21:56.241Z,52.07
2022-12-16T19:24:43.130Z,53.20
2022-12-16T19:27:29.023Z,53.83
2022-12-16T19:30:14.485Z,49.03
2022-12-16T19:33:07.155Z,48.70
2022-12-16T19:35:53.707Z,49.23
2022-12-16T19:38:39.435Z,48.17
2022-12-16T19:41:35.371Z,47.73
2022-12-16T19:44:24.075Z,49.80
2022-12-16T19:47:09.624Z,49.80
2022-12-16T19:49:56.170Z,50.57
2022-12-16T19:52:41.853Z,50.43
2022-12-16T19:55:27.905Z,48.07
2022-12-16T19:58:13.336Z,51.93
2022-12-16T20:00:59.241Z,47.57
2022-12-16T20:03:45.089Z,46.23
2022-12-16T20:06:31.528Z,46.67
2022-12-16T20:09:16.804Z,46.83
2022-12-16T20:12:03.040Z,46.83
2022-12-16T20:14:51.719Z,44.53
2022-12-16T20:17:37.624Z,46.70
2022-12-16T20:20:23.561Z,43.60
2022-12-16T20:23:09.100Z,44.40
2022-12-16T20:25:56.519Z,45.93
2022-12-16T20:28:42.403Z,41.80
2022-12-16T20:31:27.680Z,43.13
2022-12-16T20:34:16.950Z,40.47
2022-12-16T20:37:03.218Z,39.70
2022-12-16T20:39:56.516Z,39.83
2022-12-16T20:42:44.040Z,40.73
2022-12-16T20:45:30.224Z,38.87
2022-12-16T20:48:15.806Z,40.53
2022-12-16T20:51:01.575Z,40.40
2022-12-16T20:53:47.236Z,41.00
2022-12-16T20:56:32.633Z,39.60
2022-12-16T20:59:18.288Z,39.83
2022-12-16T21:05:09.458Z,41.73
2022-12-16T21:07:54.983Z,37.33
2022-12-16T21:10:42.318Z,37.03
2022-12-16T21:13:34.242Z,37.03
2022-12-16T21:16:22.834Z,33.50
2022-12-16T21:19:13.033Z,35.67
2022-12-16T21:21:58.510Z,33.60
2022-12-16T21:24:44.104Z,33.03
2022-12-16T21:27:29.411Z,32.10
2022-12-16T21:30:14.747Z,31.67
2022-12-16T21:33:00.359Z,31.73
2022-12-16T21:35:46.123Z,30.67
2022-12-16T21:38:31.867Z,32.63
2022-12-16T21:41:17.536Z,31.70
2022-12-16T21:44:02.769Z,31.93
2022-12-16T21:46:48.642Z,32.20
2022-12-16T21:49:33.928Z,29.93
2022-12-16T21:52:19.418Z,32.47
2022-12-16T21:55:05.445Z,31.87
2022-12-16T21:57:51.635Z,30.37
2022-12-16T22:00:39.025Z,31.00
2022-12-16T22:03:24.701Z,31.37
2022-12-16T22:06:10.152Z,29.30
2022-12-16T22:08:56.192Z,30.63
2022-12-16T22:11:41.836Z,30.50
2022-12-16T22:14:27.455Z,28.57
2022-12-16T22:17:12.997Z,28.60
2022-12-16T22:19:58.919Z,29.33
2022-12-16T22:22:44.189Z,30.57
2022-12-16T22:25:29.985Z,29.77
2022-12-16T22:28:17.076Z,31.43
2022-12-16T22:31:02.508Z,30.00
2022-12-16T22:33:47.714Z,31.07
2022-12-16T22:36:33.594Z,31.63
2022-12-16T22:39:18.823Z,31.07
2022-12-16T22:42:04.339Z,30.30
2022-12-16T22:44:49.769Z,29.37
2022-12-16T22:47:35.350Z,29.67
2022-12-16T22:50:20.535Z,30.57
2022-12-16T22:53:06.416Z,33.07
2022-12-16T22:55:52.120Z,32.87
2022-12-16T22:58:37.803Z,32.07
2022-12-16T23:01:27.230Z,30.80
2022-12-16T23:04:12.755Z,31.47
2022-12-16T23:06:58.585Z,32.53
2022-12-16T23:10:01.106Z,30.87
2022-12-16T23:12:46.421Z,33.60
2022-12-16T23:15:32.987Z,32.27
2022-12-16T23:18:18.588Z,30.17
2022-12-16T23:21:09.658Z,30.17
2022-12-16T23:23:56.985Z,28.97
2022-12-16T23:26:42.842Z,29.87
2022-12-16T23:29:28.311Z,29.33
2022-12-16T23:32:14.253Z,29.77
2022-12-16T23:34:59.917Z,29.37
2022-12-16T23:37:45.437Z,28.27
2022-12-16T23:40:30.857Z,28.30
2022-12-16T23:43:16.636Z,29.10
2022-12-16T23:46:02.762Z,28.67
2022-12-16T23:48:48.569Z,28.63
2022-12-16T23:51:34.388Z,29.73
2022-12-16T23:54:19.901Z,28.87
2022-12-16T23:57:05.206Z,28.57
2022-12-16T23:59:50.628Z,28.67
